createdAt,value
2023-03-11T00:00:53.552Z,11.42
2023-03-11T00:03:55.120Z,11.43
2023-03-11T00:06:56.624Z,11.54
2023-03-11T00:09:59.295Z,11.90
2023-03-11T00:13:01.186Z,12.02
2023-03-11T00:16:02.848Z,12.26
2023-03-11T00:19:04.302Z,12.26
2023-03-11T00:22:05.805Z,12.44
2023-03-11T00:25:07.625Z,12.48
2023-03-11T00:28:10.457Z,12.18
2023-03-11T00:31:14.997Z,12.17
2023-03-11T00:34:16.470Z,12.00
2023-03-11T00:37:17.926Z,11.98
2023-03-11T00:40:20.622Z,12.13
2023-03-11T00:43:22.131Z,12.06
2023-03-11T00:46:23.680Z,12.14
2023-03-11T00:49:25.197Z,12.05
2023-03-11T00:52:26.899Z,11.86
2023-03-11T00:55:31.382Z,11.85
2023-03-11T00:58:35.722Z,11.64
2023-03-11T01:01:37.796Z,11.60
2023-03-11T01:04:39.677Z,11.23
2023-03-11T01:07:41.880Z,11.48
2023-03-11T01:10:43.506Z,11.50
2023-03-11T01:13:45.180Z,11.60
2023-03-11T01:16:46.754Z,11.63
2023-03-11T01:19:49.418Z,11.77
2023-03-11T01:22:51.053Z,11.87
2023-03-11T01:25:52.564Z,11.96
2023-03-11T01:28:54.045Z,12.00
2023-03-11T01:31:55.519Z,11.88
2023-03-11T01:34:57.097Z,11.84
2023-03-11T01:38:00.928Z,11.98
2023-03-11T01:41:02.401Z,12.04
2023-03-11T01:44:05.069Z,11.95
2023-03-11T01:47:11.787Z,11.88
2023-03-11T01:50:13.907Z,12.04
2023-03-11T01:53:17.465Z,11.85
2023-03-11T01:56:19.744Z,11.78
2023-03-11T01:59:25.577Z,11.51
2023-03-11T02:02:52.131Z,11.43
2023-03-11T02:05:57.345Z,11.56
2023-03-11T02:09:00.281Z,11.43
2023-03-11T02:12:02.957Z,10.71
2023-03-11T02:15:06.904Z,10.58
2023-03-11T02:18:14.544Z,10.25
2023-03-11T02:21:32.874Z,10.10
2023-03-11T02:25:14.404Z,10.05
2023-03-11T02:28:19.038Z,10.29
2023-03-11T02:31:22.218Z,10.05
2023-03-11T02:34:30.855Z,10.69
2023-03-11T02:37:32.557Z,10.74
2023-03-11T02:41:01.176Z,10.61
2023-03-11T02:44:06.897Z,10.53
2023-03-11T02:47:08.675Z,10.21
2023-03-11T02:50:15.375Z,10.42
2023-03-11T02:53:17.321Z,10.26
2023-03-11T02:56:18.878Z,10.15
2023-03-11T02:59:20.610Z,10.79
2023-03-11T03:02:22.433Z,10.93
2023-03-11T03:05:24.282Z,11.10
2023-03-11T03:08:26.460Z,11.29
2023-03-11T03:11:28.511Z,11.56
2023-03-11T03:14:30.336Z,11.67
2023-03-11T03:17:32.034Z,11.62
2023-03-11T03:20:33.902Z,11.64
2023-03-11T03:23:37.815Z,11.77
2023-03-11T03:26:39.422Z,11.81
2023-03-11T03:29:42.258Z,11.70
2023-03-11T03:32:43.944Z,11.54
2023-03-11T03:35:48.659Z,11.42
2023-03-11T03:38:57.469Z,11.49
2023-03-11T03:42:02.463Z,11.48
2023-03-11T03:45:08.545Z,11.65
2023-03-11T03:48:10.096Z,11.61
2023-03-11T03:51:17.362Z,11.40
2023-03-11T03:54:32.324Z,11.46
2023-03-11T03:57:33.946Z,11.64
2023-03-11T04:00:36.185Z,11.69
2023-03-11T04:03:39.122Z,11.70
2023-03-11T04:06:43.981Z,11.60
2023-03-11T04:09:45.606Z,11.67
2023-03-11T04:12:48.059Z,11.69
2023-03-11T04:15:49.668Z,11.67
2023-03-11T04:18:51.334Z,11.68
2023-03-11T04:21:54.012Z,11.82
2023-03-11T04:24:57.240Z,11.93
2023-03-11T04:27:58.786Z,11.90
2023-03-11T04:31:01.033Z,11.93
2023-03-11T04:34:03.595Z,11.90
2023-03-11T04:37:05.408Z,11.88
2023-03-11T04:40:11.140Z,11.68
2023-03-11T04:43:13.064Z,11.50
2023-03-11T04:46:14.828Z,11.67
2023-03-11T04:49:16.647Z,11.75
2023-03-11T04:52:18.844Z,11.79
2023-03-11T04:55:20.526Z,11.79
2023-03-11T04:58:22.153Z,11.83
2023-03-11T05:01:23.743Z,11.84
2023-03-11T05:04:25.387Z,11.82
2023-03-11T05:07:27.137Z,11.77
2023-03-11T05:10:31.777Z,11.60
2023-03-11T05:13:35.924Z,11.46
2023-03-11T05:16:37.626Z,11.41
2023-03-11T05:19:39.913Z,11.40
2023-03-11T05:22:47.746Z,11.49
2023-03-11T05:25:49.317Z,11.56
2023-03-11T05:28:50.836Z,11.62
2023-03-11T05:31:53.525Z,11.61
2023-03-11T05:34:55.168Z,11.39
2023-03-11T05:37:56.819Z,11.44
2023-03-11T05:41:01.858Z,11.59
2023-03-11T05:44:04.374Z,11.69
2023-03-11T05:47:06.037Z,11.79
2023-03-11T05:50:09.567Z,11.79
2023-03-11T05:53:11.304Z,11.82
2023-03-11T05:56:12.845Z,11.65
2023-03-11T05:59:16.551Z,11.55
2023-03-11T06:02:21.112Z,11.53
2023-03-11T06:05:23.567Z,11.26
2023-03-11T06:08:26.652Z,11.25
2023-03-11T06:11:28.334Z,11.36
2023-03-11T06:14:31.729Z,11.42
2023-03-11T06:17:35.668Z,11.40
2023-03-11T06:20:37.892Z,11.45
2023-03-11T06:23:39.508Z,11.55
2023-03-11T06:26:41.325Z,11.50
2023-03-11T06:29:43.044Z,11.56
2023-03-11T06:32:48.041Z,11.65
2023-03-11T06:35:57.994Z,11.72
2023-03-11T06:38:59.537Z,11.77
2023-03-11T06:42:02.400Z,11.90
2023-03-11T06:45:05.209Z,12.04
2023-03-11T06:48:07.244Z,12.19
2023-03-11T06:51:10.375Z,12.35
2023-03-11T06:54:12.311Z,12.49
2023-03-11T06:57:14.178Z,12.42
2023-03-11T07:00:17.275Z,12.36
2023-03-11T07:03:23.675Z,12.07
2023-03-11T07:06:26.760Z,11.93
2023-03-11T07:09:34.213Z,12.00
2023-03-11T07:12:36.827Z,12.22
2023-03-11T07:15:38.557Z,12.37
2023-03-11T07:18:40.237Z,12.49
2023-03-11T07:21:42.276Z,12.42
2023-03-11T07:24:49.909Z,12.09
2023-03-11T07:27:51.408Z,12.05
2023-03-11T07:30:53.382Z,12.25
2023-03-11T07:33:58.204Z,12.32
2023-03-11T07:36:59.739Z,12.38
2023-03-11T07:40:01.253Z,12.58
2023-03-11T07:43:02.906Z,12.50
2023-03-11T07:46:05.792Z,12.40
2023-03-11T07:49:07.548Z,12.39
2023-03-11T07:52:09.056Z,12.40
2023-03-11T07:55:10.713Z,12.56
2023-03-11T07:58:12.185Z,12.49
2023-03-11T08:01:16.714Z,12.52
2023-03-11T08:04:18.221Z,12.70
2023-03-11T08:07:20.692Z,12.92
2023-03-11T08:10:22.214Z,13.00
2023-03-11T08:13:23.823Z,13.10
2023-03-11T08:16:25.895Z,13.29
2023-03-11T08:19:27.346Z,13.40
2023-03-11T08:22:29.246Z,13.40
2023-03-11T08:25:30.872Z,13.35
2023-03-11T08:28:32.751Z,13.56
2023-03-11T08:31:35.171Z,13.89
2023-03-11T08:34:39.197Z,14.04
2023-03-11T08:37:40.816Z,13.93
2023-03-11T08:40:42.287Z,13.66
2023-03-11T08:43:44.417Z,13.36
2023-03-11T08:46:46.154Z,13.18
2023-03-11T08:49:47.802Z,13.03
2023-03-11T08:52:49.421Z,13.07
2023-03-11T08:55:52.363Z,12.98
2023-03-11T08:58:54.316Z,13.00
2023-03-11T09:01:56.457Z,13.07
2023-03-11T09:04:57.904Z,13.05
2023-03-11T09:07:59.383Z,12.90
2023-03-11T09:11:01.085Z,13.04
2023-03-11T09:14:02.780Z,13.35
2023-03-11T09:17:04.312Z,13.60
2023-03-11T09:20:06.602Z,13.68
2023-03-11T09:23:10.163Z,13.63
2023-03-11T09:26:12.210Z,13.61
2023-03-11T09:29:13.754Z,13.53
2023-03-11T09:32:15.703Z,13.70
2023-03-11T09:35:17.409Z,13.61
2023-03-11T09:38:19.033Z,13.60
2023-03-11T09:41:38.311Z,13.77
2023-03-11T09:45:16.461Z,14.00
2023-03-11T09:48:34.489Z,13.95
2023-03-11T09:51:53.638Z,14.11
2023-03-11T09:54:55.760Z,14.03
2023-03-11T09:57:59.867Z,13.79
2023-03-11T10:01:01.584Z,13.86
2023-03-11T10:04:18.371Z,14.15
2023-03-11T10:07:25.561Z,14.28
2023-03-11T10:10:30.918Z,14.29
2023-03-11T10:13:49.481Z,14.18
2023-03-11T10:17:02.791Z,14.11
2023-03-11T10:20:22.370Z,13.79
2023-03-11T10:23:45.258Z,13.87
2023-03-11T10:26:57.959Z,14.05
2023-03-11T10:30:09.444Z,14.32
2023-03-11T10:33:17.113Z,14.34
2023-03-11T10:36:27.225Z,14.41
2023-03-11T10:39:28.975Z,14.54
2023-03-11T10:42:30.531Z,14.37
2023-03-11T10:45:38.006Z,14.39
2023-03-11T10:48:39.511Z,14.22
2023-03-11T10:51:45.199Z,14.34
2023-03-11T10:54:49.080Z,14.50
2023-03-11T10:57:50.594Z,14.58
2023-03-11T11:01:02.284Z,14.65
2023-03-11T11:04:04.129Z,14.67
2023-03-11T11:07:20.967Z,14.53
2023-03-11T11:10:27.555Z,14.53
2023-03-11T11:13:32.288Z,14.34
2023-03-11T11:16:35.175Z,14.40
2023-03-11T11:19:44.401Z,14.41
2023-03-11T11:22:52.340Z,14.63
2023-03-11T11:26:00.138Z,13.15
2023-03-11T11:29:15.648Z,13.08
2023-03-11T11:32:25.701Z,13.65
2023-03-11T11:35:27.312Z,13.17
2023-03-11T11:38:30.794Z,13.99
2023-03-11T11:41:35.323Z,13.80
2023-03-11T11:44:36.793Z,13.28
2023-03-11T11:47:45.186Z,12.98
2023-03-11T11:50:52.640Z,13.23
2023-03-11T11:54:20.154Z,13.81
2023-03-11T11:57:23.007Z,13.65
2023-03-11T12:00:36.050Z,13.32
2023-03-11T12:04:07.815Z,13.17
2023-03-11T12:07:36.883Z,12.85
2023-03-11T12:10:53.664Z,12.69
2023-03-11T12:14:09.339Z,13.01
2023-03-11T12:17:13.307Z,13.04
2023-03-11T12:20:28.162Z,13.14
2023-03-11T12:23:54.123Z,13.29
2023-03-11T12:27:01.795Z,12.90
2023-03-11T12:30:12.607Z,13.00
2023-03-11T12:33:33.224Z,13.01
2023-03-11T12:36:37.553Z,13.30
2023-03-11T12:39:39.068Z,13.64
2023-03-11T12:42:41.108Z,13.96
2023-03-11T12:45:51.347Z,13.92
2023-03-11T12:49:11.994Z,14.01
2023-03-11T12:52:13.570Z,13.86
2023-03-11T12:55:15.026Z,14.04
2023-03-11T12:58:29.200Z,13.64
2023-03-11T13:01:39.880Z,13.13
2023-03-11T13:04:51.803Z,13.12
2023-03-11T13:08:20.655Z,13.47
2023-03-11T13:11:34.151Z,13.32
2023-03-11T13:14:35.732Z,13.18
2023-03-11T13:17:37.161Z,13.00
2023-03-11T13:20:38.685Z,13.49
2023-03-11T13:23:42.776Z,13.90
2023-03-11T13:27:27.646Z,13.58
2023-03-11T13:30:35.689Z,13.52
2023-03-11T13:33:45.993Z,13.62
2023-03-11T13:37:29.664Z,13.47
2023-03-11T13:40:39.362Z,13.90
2023-03-11T13:43:45.837Z,13.79
2023-03-11T13:46:50.368Z,13.82
2023-03-11T13:50:06.021Z,14.13
2023-03-11T13:53:23.776Z,14.58
2023-03-11T13:56:29.030Z,14.18
2023-03-11T13:59:33.638Z,13.81
2023-03-11T14:02:35.849Z,13.86
2023-03-11T14:05:44.337Z,13.77
2023-03-11T14:08:54.736Z,14.19
2023-03-11T14:12:04.912Z,15.00
2023-03-11T14:15:09.236Z,15.72
2023-03-11T14:18:41.688Z,16.44
2023-03-11T14:21:44.320Z,16.76
2023-03-11T14:24:48.084Z,16.01
2023-03-11T14:27:58.183Z,15.71
2023-03-11T14:31:01.586Z,15.03
2023-03-11T14:34:10.439Z,14.42
2023-03-11T14:37:25.925Z,14.39
2023-03-11T14:40:32.892Z,14.33
2023-03-11T14:43:41.417Z,14.56
2023-03-11T14:46:45.271Z,14.02
2023-03-11T14:49:49.870Z,13.96
2023-03-11T14:52:55.501Z,14.18
2023-03-11T14:55:59.890Z,13.88
2023-03-11T14:59:12.720Z,13.80
2023-03-11T15:02:37.607Z,13.72
2023-03-11T15:05:47.458Z,13.65
2023-03-11T15:08:55.881Z,13.61
2023-03-11T15:11:59.765Z,13.51
2023-03-11T15:15:01.392Z,13.58
2023-03-11T15:18:03.382Z,13.57
2023-03-11T15:21:10.534Z,13.84
2023-03-11T15:24:20.945Z,14.11
2023-03-11T15:27:34.337Z,14.28
2023-03-11T15:30:36.016Z,14.19
2023-03-11T15:33:42.550Z,14.05
2023-03-11T15:36:50.168Z,13.96
2023-03-11T15:39:53.111Z,13.98
2023-03-11T15:43:21.195Z,13.77
2023-03-11T15:46:22.722Z,13.58
2023-03-11T15:49:24.205Z,13.44
2023-03-11T15:52:25.964Z,13.38
2023-03-11T15:55:28.623Z,13.26
2023-03-11T15:58:30.674Z,13.08
2023-03-11T16:01:32.167Z,13.10
2023-03-11T16:04:33.770Z,13.09
2023-03-11T16:07:39.838Z,13.10
2023-03-11T16:10:42.508Z,12.92
2023-03-11T16:13:44.206Z,12.77
2023-03-11T16:16:45.917Z,12.30
2023-03-11T16:19:49.584Z,12.04
2023-03-11T16:22:54.083Z,11.87
2023-03-11T16:26:00.773Z,11.52
2023-03-11T16:29:16.634Z,11.56
2023-03-11T16:32:20.414Z,11.56
2023-03-11T16:35:21.918Z,11.52
2023-03-11T16:38:23.432Z,11.50
2023-03-11T16:41:24.938Z,11.52
2023-03-11T16:44:26.728Z,11.48
2023-03-11T16:47:28.319Z,11.40
2023-03-11T16:50:29.953Z,11.45
2023-03-11T16:53:31.587Z,11.52
2023-03-11T16:56:34.227Z,11.67
2023-03-11T16:59:35.806Z,11.78
2023-03-11T17:02:37.736Z,11.80
2023-03-11T17:05:39.290Z,11.74
2023-03-11T17:08:40.799Z,11.64
2023-03-11T17:11:42.324Z,11.62
2023-03-11T17:14:43.825Z,11.51
2023-03-11T17:17:45.315Z,11.51
2023-03-11T17:20:46.865Z,11.40
2023-03-11T17:23:48.332Z,11.53
2023-03-11T17:26:49.842Z,11.52
2023-03-11T17:29:51.331Z,11.51
2023-03-11T17:32:52.808Z,11.51
2023-03-11T17:36:06.721Z,11.44
2023-03-11T17:39:08.620Z,11.35
2023-03-11T17:42:10.338Z,11.32
2023-03-11T17:45:12.823Z,11.32
2023-03-11T17:48:14.373Z,11.40
2023-03-11T17:51:19.470Z,11.37
2023-03-11T17:54:20.985Z,11.36
2023-03-11T17:57:22.884Z,11.34
2023-03-11T18:00:24.542Z,11.30
2023-03-11T18:03:26.012Z,11.25
2023-03-11T18:06:27.517Z,11.50
2023-03-11T18:09:29.079Z,11.65
2023-03-11T18:12:30.562Z,11.71
2023-03-11T18:15:32.057Z,11.71
2023-03-11T18:18:35.164Z,11.65
2023-03-11T18:21:36.669Z,11.60
2023-03-11T18:24:39.351Z,11.49
2023-03-11T18:27:41.082Z,11.47
2023-03-11T18:30:42.552Z,11.41
2023-03-11T18:33:49.014Z,11.66
2023-03-11T18:36:50.523Z,11.67
2023-03-11T18:39:52.115Z,11.67
2023-03-11T18:42:53.662Z,11.68
2023-03-11T18:45:55.181Z,11.64
2023-03-11T18:48:57.942Z,11.56
2023-03-11T18:51:59.627Z,11.51
2023-03-11T18:55:01.105Z,11.55
2023-03-11T18:58:02.569Z,11.64
2023-03-11T19:01:06.662Z,11.56
2023-03-11T19:04:09.790Z,11.58
2023-03-11T19:07:11.294Z,11.63
2023-03-11T19:10:14.906Z,11.68
2023-03-11T19:13:19.197Z,11.62
2023-03-11T19:16:24.066Z,11.90
2023-03-11T19:19:25.588Z,11.95
2023-03-11T19:22:27.037Z,12.05
2023-03-11T19:25:28.588Z,11.99
2023-03-11T19:28:30.479Z,11.83
2023-03-11T19:31:32.019Z,11.43
2023-03-11T19:34:33.592Z,11.28
2023-03-11T19:37:35.052Z,11.19
2023-03-11T19:40:36.505Z,11.09
2023-03-11T19:43:38.042Z,10.94
2023-03-11T19:46:39.585Z,10.86
2023-03-11T19:49:41.089Z,10.24
2023-03-11T19:52:42.556Z,10.06
2023-03-11T19:55:49.784Z,10.70
2023-03-11T19:58:52.167Z,10.70
2023-03-11T20:01:53.754Z,10.66
2023-03-11T20:04:55.256Z,10.54
2023-03-11T20:07:56.946Z,10.45
2023-03-11T20:11:00.678Z,10.47
2023-03-11T20:14:02.244Z,10.42
2023-03-11T20:17:03.759Z,10.16
2023-03-11T20:20:05.648Z,9.56
2023-03-11T20:23:07.126Z,9.58
2023-03-11T20:26:12.324Z,9.76
2023-03-11T20:29:13.937Z,9.84
2023-03-11T20:32:15.560Z,9.83
2023-03-11T20:35:17.324Z,9.88
2023-03-11T20:38:18.821Z,9.85
2023-03-11T20:41:23.090Z,9.82
2023-03-11T20:44:24.728Z,9.78
2023-03-11T20:47:26.371Z,9.75
2023-03-11T20:50:27.996Z,9.81
2023-03-11T20:53:30.712Z,9.89
2023-03-11T20:56:32.248Z,9.92
2023-03-11T20:59:33.796Z,9.91
2023-03-11T21:02:35.620Z,9.91
2023-03-11T21:05:38.379Z,9.91
2023-03-11T21:08:39.977Z,9.91
2023-03-11T21:11:41.730Z,9.90
2023-03-11T21:14:43.319Z,9.90
2023-03-11T21:17:44.774Z,9.84
2023-03-11T21:20:46.370Z,9.78
2023-03-11T21:23:49.271Z,9.72
2023-03-11T21:26:50.783Z,9.75
2023-03-11T21:29:53.890Z,9.77
2023-03-11T21:32:55.532Z,9.83
2023-03-11T21:35:59.962Z,9.81
2023-03-11T21:39:03.584Z,9.80
2023-03-11T21:42:05.590Z,9.81
2023-03-11T21:45:07.791Z,9.76
2023-03-11T21:48:10.993Z,9.65
2023-03-11T21:51:13.703Z,9.45
2023-03-11T21:54:15.933Z,9.11
2023-03-11T21:57:17.535Z,8.77
2023-03-11T22:00:19.221Z,8.23
2023-03-11T22:03:21.012Z,8.33
2023-03-11T22:06:22.818Z,8.41
2023-03-11T22:09:25.877Z,8.50
2023-03-11T22:12:27.639Z,8.54
2023-03-11T22:15:29.337Z,8.57
2023-03-11T22:18:30.971Z,8.62
2023-03-11T22:21:32.611Z,8.75
2023-03-11T22:24:34.218Z,8.93
2023-03-11T22:27:36.000Z,8.94
2023-03-11T22:30:37.495Z,9.10
2023-03-11T22:33:39.662Z,9.22
2023-03-11T22:36:41.176Z,9.28
2023-03-11T22:39:43.325Z,9.39
2023-03-11T22:42:44.808Z,9.40
2023-03-11T22:45:46.367Z,9.53
2023-03-11T22:48:48.312Z,9.59
2023-03-11T22:51:49.802Z,9.65
2023-03-11T22:54:51.397Z,9.62
2023-03-11T22:57:52.867Z,9.47
2023-03-11T23:00:54.398Z,9.40
2023-03-11T23:03:55.985Z,9.34
2023-03-11T23:06:57.639Z,9.39
2023-03-11T23:09:59.186Z,9.47
2023-03-11T23:13:00.823Z,9.55
2023-03-11T23:16:07.440Z,9.59
2023-03-11T23:19:09.254Z,9.53
2023-03-11T23:22:10.730Z,9.61
2023-03-11T23:25:16.040Z,9.63
2023-03-11T23:28:17.571Z,9.64
2023-03-11T23:31:20.863Z,9.61
2023-03-11T23:34:22.674Z,9.60
2023-03-11T23:37:24.184Z,9.62
2023-03-11T23:40:26.211Z,9.72
2023-03-11T23:43:27.796Z,9.82
2023-03-11T23:46:29.382Z,9.88
2023-03-11T23:49:30.910Z,10.00
2023-03-11T23:52:32.955Z,10.00
2023-03-11T23:55:37.841Z,9.99
2023-03-11T23:58:39.874Z,9.99
